sensor_id;sensor_type;location;lat;lon;timestamp;P1;durP1;ratioP1;P2;durP2;ratioP2
22240;SDS011;11289;52.524;13.694;2023-05-14T00:01:46;8.15;;;7.35;;
22240;SDS011;11289;52.524;13.694;2023-05-14T00:04:13;8.23;;;7.43;;
22240;SDS011;11289;52.524;13.694;2023-05-14T00:06:47;8.27;;;6.88;;
22240;SDS011;11289;52.524;13.694;2023-05-14T00:09:16;8.40;;;7.07;;
22240;SDS011;11289;52.524;13.694;2023-05-14T00:11:45;9.02;;;7.10;;
22240;SDS011;11289;52.524;13.694;2023-05-14T00:14:16;9.20;;;7.05;;
22240;SDS011;11289;52.524;13.694;2023-05-14T00:16:42;10.05;;;7.07;;
22240;SDS011;11289;52.524;13.694;2023-05-14T00:19:08;9.60;;;6.53;;
22240;SDS011;11289;52.524;13.694;2023-05-14T00:21:35;8.05;;;7.25;;
22240;SDS011;11289;52.524;13.694;2023-05-14T00:24:03;8.43;;;6.88;;
22240;SDS011;11289;52.524;13.694;2023-05-14T00:26:29;9.23;;;6.50;;
22240;SDS011;11289;52.524;13.694;2023-05-14T00:28:55;8.18;;;7.35;;
22240;SDS011;11289;52.524;13.694;2023-05-14T00:31:21;10.77;;;8.25;;
22240;SDS011;11289;52.524;13.694;2023-05-14T00:33:48;8.43;;;7.32;;
22240;SDS011;11289;52.524;13.694;2023-05-14T00:36:15;7.93;;;6.57;;
22240;SDS011;11289;52.524;13.694;2023-05-14T00:38:41;7.85;;;7.05;;
22240;SDS011;11289;52.524;13.694;2023-05-14T00:41:07;9.75;;;7.45;;
22240;SDS011;11289;52.524;13.694;2023-05-14T00:43:33;7.85;;;7.15;;
22240;SDS011;11289;52.524;13.694;2023-05-14T00:46:01;8.02;;;7.15;;
22240;SDS011;11289;52.524;13.694;2023-05-14T00:48:28;7.97;;;7.18;;
22240;SDS011;11289;52.524;13.694;2023-05-14T00:50:55;8.68;;;7.72;;
22240;SDS011;11289;52.524;13.694;2023-05-14T00:53:22;8.82;;;7.88;;
22240;SDS011;11289;52.524;13.694;2023-05-14T00:55:49;8.60;;;7.55;;
22240;SDS011;11289;52.524;13.694;2023-05-14T00:58:18;7.53;;;6.80;;
22240;SDS011;11289;52.524;13.694;2023-05-14T01:00:45;8.43;;;7.55;;
22240;SDS011;11289;52.524;13.694;2023-05-14T01:03:11;9.43;;;7.85;;
22240;SDS011;11289;52.524;13.694;2023-05-14T01:05:52;7.85;;;7.05;;
22240;SDS011;11289;52.524;13.694;2023-05-14T01:11:43;9.32;;;7.30;;
22240;SDS011;11289;52.524;13.694;2023-05-14T01:17:21;10.98;;;7.70;;
22240;SDS011;11289;52.524;13.694;2023-05-14T01:19:49;7.93;;;7.13;;
22240;SDS011;11289;52.524;13.694;2023-05-14T01:22:16;8.15;;;7.45;;
22240;SDS011;11289;52.524;13.694;2023-05-14T01:24:42;8.20;;;7.13;;
22240;SDS011;11289;52.524;13.694;2023-05-14T01:27:14;9.20;;;7.90;;
22240;SDS011;11289;52.524;13.694;2023-05-14T01:29:48;8.45;;;7.30;;
22240;SDS011;11289;52.524;13.694;2023-05-14T01:32:26;9.70;;;8.65;;
22240;SDS011;11289;52.524;13.694;2023-05-14T01:34:55;9.15;;;7.93;;
22240;SDS011;11289;52.524;13.694;2023-05-14T01:37:24;10.05;;;7.65;;
22240;SDS011;11289;52.524;13.694;2023-05-14T01:39:53;9.25;;;8.30;;
22240;SDS011;11289;52.524;13.694;2023-05-14T01:42:24;9.15;;;7.28;;
22240;SDS011;11289;52.524;13.694;2023-05-14T01:44:50;8.23;;;7.40;;
22240;SDS011;11289;52.524;13.694;2023-05-14T01:47:16;8.68;;;7.78;;
22240;SDS011;11289;52.524;13.694;2023-05-14T01:49:42;8.20;;;7.40;;
22240;SDS011;11289;52.524;13.694;2023-05-14T01:52:08;8.07;;;7.13;;
22240;SDS011;11289;52.524;13.694;2023-05-14T01:54:34;7.82;;;7.03;;
22240;SDS011;11289;52.524;13.694;2023-05-14T01:57:00;8.63;;;7.40;;
22240;SDS011;11289;52.524;13.694;2023-05-14T01:59:26;8.73;;;7.13;;
22240;SDS011;11289;52.524;13.694;2023-05-14T02:01:54;11.30;;;7.80;;
22240;SDS011;11289;52.524;13.694;2023-05-14T02:04:20;7.70;;;6.90;;
22240;SDS011;11289;52.524;13.694;2023-05-14T02:06:46;8.45;;;7.20;;
22240;SDS011;11289;52.524;13.694;2023-05-14T02:09:12;9.77;;;7.38;;
22240;SDS011;11289;52.524;13.694;2023-05-14T02:11:38;11.30;;;7.93;;
22240;SDS011;11289;52.524;13.694;2023-05-14T02:14:04;8.43;;;7.63;;
22240;SDS011;11289;52.524;13.694;2023-05-14T02:16:30;7.57;;;6.78;;
22240;SDS011;11289;52.524;13.694;2023-05-14T02:18:56;7.28;;;6.65;;
22240;SDS011;11289;52.524;13.694;2023-05-14T02:21:22;7.70;;;6.88;;
22240;SDS011;11289;52.524;13.694;2023-05-14T02:23:49;7.50;;;6.80;;
22240;SDS011;11289;52.524;13.694;2023-05-14T02:26:15;7.57;;;6.85;;
22240;SDS011;11289;52.524;13.694;2023-05-14T02:28:41;11.00;;;8.00;;
22240;SDS011;11289;52.524;13.694;2023-05-14T02:31:07;8.10;;;6.75;;
22240;SDS011;11289;52.524;13.694;2023-05-14T02:33:33;7.47;;;6.72;;
22240;SDS011;11289;52.524;13.694;2023-05-14T02:36:08;7.88;;;6.65;;
22240;SDS011;11289;52.524;13.694;2023-05-14T02:38:34;8.98;;;6.78;;
22240;SDS011;11289;52.524;13.694;2023-05-14T02:41:00;9.93;;;6.50;;
22240;SDS011;11289;52.524;13.694;2023-05-14T02:43:31;7.90;;;7.18;;
22240;SDS011;11289;52.524;13.694;2023-05-14T02:45:57;8.40;;;7.22;;
22240;SDS011;11289;52.524;13.694;2023-05-14T02:48:27;8.52;;;6.80;;
22240;SDS011;11289;52.524;13.694;2023-05-14T02:50:53;10.05;;;6.55;;
22240;SDS011;11289;52.524;13.694;2023-05-14T02:53:28;8.15;;;7.05;;
22240;SDS011;11289;52.524;13.694;2023-05-14T02:58:28;11.95;;;7.10;;
22240;SDS011;11289;52.524;13.694;2023-05-14T03:00:55;7.70;;;6.82;;
22240;SDS011;11289;52.524;13.694;2023-05-14T03:03:36;9.45;;;6.95;;
22240;SDS011;11289;52.524;13.694;2023-05-14T03:06:03;8.95;;;6.82;;
22240;SDS011;11289;52.524;13.694;2023-05-14T03:08:29;8.07;;;7.10;;
22240;SDS011;11289;52.524;13.694;2023-05-14T03:10:56;8.65;;;7.53;;
22240;SDS011;11289;52.524;13.694;2023-05-14T03:13:22;7.63;;;6.60;;
22240;SDS011;11289;52.524;13.694;2023-05-14T03:15:48;9.43;;;6.38;;
22240;SDS011;11289;52.524;13.694;2023-05-14T03:18:14;9.10;;;6.68;;
22240;SDS011;11289;52.524;13.694;2023-05-14T03:20:40;10.45;;;7.50;;
22240;SDS011;11289;52.524;13.694;2023-05-14T03:23:06;13.70;;;7.43;;
22240;SDS011;11289;52.524;13.694;2023-05-14T03:25:32;9.43;;;6.82;;
22240;SDS011;11289;52.524;13.694;2023-05-14T03:27:59;9.30;;;7.32;;
22240;SDS011;11289;52.524;13.694;2023-05-14T03:30:24;11.20;;;7.90;;
22240;SDS011;11289;52.524;13.694;2023-05-14T03:32:50;8.52;;;7.30;;
22240;SDS011;11289;52.524;13.694;2023-05-14T03:35:16;10.52;;;7.55;;
22240;SDS011;11289;52.524;13.694;2023-05-14T03:37:42;11.80;;;7.72;;
22240;SDS011;11289;52.524;13.694;2023-05-14T03:40:08;7.80;;;7.03;;
22240;SDS011;11289;52.524;13.694;2023-05-14T03:42:35;12.77;;;7.13;;
22240;SDS011;11289;52.524;13.694;2023-05-14T03:45:01;8.57;;;6.82;;
22240;SDS011;11289;52.524;13.694;2023-05-14T03:47:27;9.23;;;7.45;;
22240;SDS011;11289;52.524;13.694;2023-05-14T03:49:53;8.50;;;7.03;;
22240;SDS011;11289;52.524;13.694;2023-05-14T03:52:19;9.40;;;7.28;;
22240;SDS011;11289;52.524;13.694;2023-05-14T03:54:45;9.10;;;6.75;;
22240;SDS011;11289;52.524;13.694;2023-05-14T03:57:11;8.00;;;7.03;;
22240;SDS011;11289;52.524;13.694;2023-05-14T03:59:37;8.27;;;7.47;;
22240;SDS011;11289;52.524;13.694;2023-05-14T04:02:03;9.98;;;7.75;;
22240;SDS011;11289;52.524;13.694;2023-05-14T04:04:29;10.40;;;7.53;;
22240;SDS011;11289;52.524;13.694;2023-05-14T04:06:55;9.10;;;6.70;;
22240;SDS011;11289;52.524;13.694;2023-05-14T04:09:21;11.90;;;7.38;;
22240;SDS011;11289;52.524;13.694;2023-05-14T04:11:48;8.68;;;7.43;;
22240;SDS011;11289;52.524;13.694;2023-05-14T04:14:13;8.13;;;7.28;;
22240;SDS011;11289;52.524;13.694;2023-05-14T04:16:39;10.10;;;6.55;;
22240;SDS011;11289;52.524;13.694;2023-05-14T04:19:05;9.07;;;7.35;;
22240;SDS011;11289;52.524;13.694;2023-05-14T04:21:31;11.68;;;8.05;;
22240;SDS011;11289;52.524;13.694;2023-05-14T04:23:57;9.75;;;7.28;;
22240;SDS011;11289;52.524;13.694;2023-05-14T04:26:23;8.15;;;7.35;;
22240;SDS011;11289;52.524;13.694;2023-05-14T04:28:50;11.93;;;7.95;;
22240;SDS011;11289;52.524;13.694;2023-05-14T04:31:16;9.65;;;7.00;;
22240;SDS011;11289;52.524;13.694;2023-05-14T04:33:42;9.65;;;6.78;;
22240;SDS011;11289;52.524;13.694;2023-05-14T04:36:08;13.25;;;7.85;;
22240;SDS011;11289;52.524;13.694;2023-05-14T04:38:34;11.50;;;7.22;;
22240;SDS011;11289;52.524;13.694;2023-05-14T04:41:00;10.45;;;7.45;;
22240;SDS011;11289;52.524;13.694;2023-05-14T04:43:26;9.02;;;7.05;;
22240;SDS011;11289;52.524;13.694;2023-05-14T04:45:52;10.57;;;7.13;;
22240;SDS011;11289;52.524;13.694;2023-05-14T04:48:18;11.20;;;7.10;;
22240;SDS011;11289;52.524;13.694;2023-05-14T04:50:45;9.07;;;7.05;;
22240;SDS011;11289;52.524;13.694;2023-05-14T04:53:14;9.23;;;6.93;;
22240;SDS011;11289;52.524;13.694;2023-05-14T04:55:40;10.75;;;6.93;;
22240;SDS011;11289;52.524;13.694;2023-05-14T04:58:07;9.05;;;6.78;;
22240;SDS011;11289;52.524;13.694;2023-05-14T05:00:33;10.07;;;8.20;;
22240;SDS011;11289;52.524;13.694;2023-05-14T05:02:59;11.07;;;7.07;;
22240;SDS011;11289;52.524;13.694;2023-05-14T05:05:25;7.93;;;6.70;;
22240;SDS011;11289;52.524;13.694;2023-05-14T05:07:51;9.85;;;7.13;;
22240;SDS011;11289;52.524;13.694;2023-05-14T05:10:17;12.05;;;7.18;;
22240;SDS011;11289;52.524;13.694;2023-05-14T05:12:43;13.30;;;7.25;;
22240;SDS011;11289;52.524;13.694;2023-05-14T05:15:09;9.82;;;7.18;;
22240;SDS011;11289;52.524;13.694;2023-05-14T05:17:35;11.00;;;7.43;;
22240;SDS011;11289;52.524;13.694;2023-05-14T05:20:01;12.38;;;7.53;;
22240;SDS011;11289;52.524;13.694;2023-05-14T05:22:30;12.95;;;7.40;;
22240;SDS011;11289;52.524;13.694;2023-05-14T05:24:56;11.18;;;6.85;;
22240;SDS011;11289;52.524;13.694;2023-05-14T05:27:23;9.63;;;7.45;;
22240;SDS011;11289;52.524;13.694;2023-05-14T05:29:49;10.50;;;7.32;;
22240;SDS011;11289;52.524;13.694;2023-05-14T05:32:26;9.88;;;7.15;;
22240;SDS011;11289;52.524;13.694;2023-05-14T05:34:57;10.30;;;6.72;;
22240;SDS011;11289;52.524;13.694;2023-05-14T05:37:28;12.57;;;6.47;;
22240;SDS011;11289;52.524;13.694;2023-05-14T05:40:01;10.50;;;7.55;;
22240;SDS011;11289;52.524;13.694;2023-05-14T05:42:28;7.60;;;6.20;;
22240;SDS011;11289;52.524;13.694;2023-05-14T05:44:54;7.80;;;6.68;;
22240;SDS011;11289;52.524;13.694;2023-05-14T05:47:21;9.10;;;6.82;;
22240;SDS011;11289;52.524;13.694;2023-05-14T05:49:47;10.48;;;6.88;;
22240;SDS011;11289;52.524;13.694;2023-05-14T05:52:14;8.43;;;7.28;;
22240;SDS011;11289;52.524;13.694;2023-05-14T05:54:54;9.02;;;6.22;;
22240;SDS011;11289;52.524;13.694;2023-05-14T05:57:20;8.55;;;6.82;;
22240;SDS011;11289;52.524;13.694;2023-05-14T05:59:49;8.90;;;6.07;;
22240;SDS011;11289;52.524;13.694;2023-05-14T06:02:20;8.20;;;6.30;;
22240;SDS011;11289;52.524;13.694;2023-05-14T06:04:48;11.88;;;6.82;;
22240;SDS011;11289;52.524;13.694;2023-05-14T06:07:13;9.75;;;5.97;;
22240;SDS011;11289;52.524;13.694;2023-05-14T06:09:40;9.43;;;6.93;;
22240;SDS011;11289;52.524;13.694;2023-05-14T06:12:09;6.65;;;5.57;;
22240;SDS011;11289;52.524;13.694;2023-05-14T06:14:37;14.30;;;6.63;;
22240;SDS011;11289;52.524;13.694;2023-05-14T06:17:23;9.00;;;6.63;;
22240;SDS011;11289;52.524;13.694;2023-05-14T06:19:59;9.35;;;7.18;;
22240;SDS011;11289;52.524;13.694;2023-05-14T06:22:37;7.97;;;6.45;;
22240;SDS011;11289;52.524;13.694;2023-05-14T06:25:15;8.52;;;6.80;;
22240;SDS011;11289;52.524;13.694;2023-05-14T06:28:23;10.27;;;5.95;;
22240;SDS011;11289;52.524;13.694;2023-05-14T06:31:28;6.82;;;6.13;;
22240;SDS011;11289;52.524;13.694;2023-05-14T06:34:29;14.20;;;6.63;;
22240;SDS011;11289;52.524;13.694;2023-05-14T06:38:16;6.07;;;5.00;;
22240;SDS011;11289;52.524;13.694;2023-05-14T06:40:55;7.97;;;5.80;;
22240;SDS011;11289;52.524;13.694;2023-05-14T06:43:33;9.05;;;6.43;;
22240;SDS011;11289;52.524;13.694;2023-05-14T06:46:55;8.10;;;6.65;;
22240;SDS011;11289;52.524;13.694;2023-05-14T06:49:24;8.07;;;5.93;;
22240;SDS011;11289;52.524;13.694;2023-05-14T06:51:52;8.05;;;5.85;;
22240;SDS011;11289;52.524;13.694;2023-05-14T06:54:18;8.98;;;6.05;;
22240;SDS011;11289;52.524;13.694;2023-05-14T06:56:45;7.68;;;5.75;;
22240;SDS011;11289;52.524;13.694;2023-05-14T06:59:11;7.18;;;5.55;;
22240;SDS011;11289;52.524;13.694;2023-05-14T07:01:37;9.15;;;5.47;;
22240;SDS011;11289;52.524;13.694;2023-05-14T07:04:03;6.50;;;5.00;;
22240;SDS011;11289;52.524;13.694;2023-05-14T07:06:29;8.35;;;5.40;;
22240;SDS011;11289;52.524;13.694;2023-05-14T07:08:56;7.28;;;5.63;;
22240;SDS011;11289;52.524;13.694;2023-05-14T07:11:22;8.40;;;5.28;;
22240;SDS011;11289;52.524;13.694;2023-05-14T07:13:48;8.18;;;5.10;;
22240;SDS011;11289;52.524;13.694;2023-05-14T07:16:14;7.70;;;5.85;;
22240;SDS011;11289;52.524;13.694;2023-05-14T07:18:40;6.55;;;5.40;;
22240;SDS011;11289;52.524;13.694;2023-05-14T07:21:09;7.05;;;5.40;;
22240;SDS011;11289;52.524;13.694;2023-05-14T07:23:35;9.10;;;5.60;;
22240;SDS011;11289;52.524;13.694;2023-05-14T07:26:03;7.57;;;5.18;;
22240;SDS011;11289;52.524;13.694;2023-05-14T07:28:32;9.23;;;5.15;;
22240;SDS011;11289;52.524;13.694;2023-05-14T07:30:59;8.02;;;4.82;;
22240;SDS011;11289;52.524;13.694;2023-05-14T07:33:25;6.38;;;5.18;;
22240;SDS011;11289;52.524;13.694;2023-05-14T07:35:51;9.77;;;4.88;;
22240;SDS011;11289;52.524;13.694;2023-05-14T07:38:18;7.07;;;4.97;;
22240;SDS011;11289;52.524;13.694;2023-05-14T07:40:46;7.88;;;4.78;;
22240;SDS011;11289;52.524;13.694;2023-05-14T07:43:12;5.53;;;4.80;;
22240;SDS011;11289;52.524;13.694;2023-05-14T07:45:39;8.75;;;4.63;;
22240;SDS011;11289;52.524;13.694;2023-05-14T07:48:14;7.75;;;4.25;;
22240;SDS011;11289;52.524;13.694;2023-05-14T07:50:42;7.25;;;4.57;;
22240;SDS011;11289;52.524;13.694;2023-05-14T07:53:09;5.90;;;4.03;;
22240;SDS011;11289;52.524;13.694;2023-05-14T07:55:39;5.75;;;4.10;;
22240;SDS011;11289;52.524;13.694;2023-05-14T08:00:50;7.55;;;3.97;;
22240;SDS011;11289;52.524;13.694;2023-05-14T08:03:31;5.63;;;4.07;;
22240;SDS011;11289;52.524;13.694;2023-05-14T08:06:44;5.97;;;3.90;;
22240;SDS011;11289;52.524;13.694;2023-05-14T08:09:16;6.95;;;4.40;;
22240;SDS011;11289;52.524;13.694;2023-05-14T08:12:18;7.40;;;4.50;;
22240;SDS011;11289;52.524;13.694;2023-05-14T08:15:06;7.78;;;4.75;;
22240;SDS011;11289;52.524;13.694;2023-05-14T08:17:32;7.90;;;4.65;;
22240;SDS011;11289;52.524;13.694;2023-05-14T08:20:18;7.57;;;4.80;;
22240;SDS011;11289;52.524;13.694;2023-05-14T08:23:11;4.55;;;4.13;;
22240;SDS011;11289;52.524;13.694;2023-05-14T08:27:03;6.43;;;4.50;;
22240;SDS011;11289;52.524;13.694;2023-05-14T08:31:03;6.95;;;4.63;;
22240;SDS011;11289;52.524;13.694;2023-05-14T08:33:30;7.20;;;3.80;;
22240;SDS011;11289;52.524;13.694;2023-05-14T08:36:05;7.88;;;4.68;;
22240;SDS011;11289;52.524;13.694;2023-05-14T08:38:32;4.40;;;3.67;;
22240;SDS011;11289;52.524;13.694;2023-05-14T08:40:58;15.30;;;4.75;;
22240;SDS011;11289;52.524;13.694;2023-05-14T08:43:25;7.78;;;4.05;;
22240;SDS011;11289;52.524;13.694;2023-05-14T08:45:55;4.93;;;4.03;;
22240;SDS011;11289;52.524;13.694;2023-05-14T08:48:28;7.15;;;4.22;;
22240;SDS011;11289;52.524;13.694;2023-05-14T08:50:56;8.82;;;4.45;;
22240;SDS011;11289;52.524;13.694;2023-05-14T08:53:24;6.25;;;3.95;;
22240;SDS011;11289;52.524;13.694;2023-05-14T08:55:50;5.85;;;4.18;;
22240;SDS011;11289;52.524;13.694;2023-05-14T08:58:18;6.55;;;3.20;;
22240;SDS011;11289;52.524;13.694;2023-05-14T09:00:44;4.88;;;3.55;;
22240;SDS011;11289;52.524;13.694;2023-05-14T09:03:10;6.95;;;3.88;;
22240;SDS011;11289;52.524;13.694;2023-05-14T09:05:37;6.07;;;3.42;;
22240;SDS011;11289;52.524;13.694;2023-05-14T09:08:03;11.07;;;3.75;;
22240;SDS011;11289;52.524;13.694;2023-05-14T09:10:30;4.07;;;3.20;;
22240;SDS011;11289;52.524;13.694;2023-05-14T09:12:57;6.18;;;3.20;;
22240;SDS011;11289;52.524;13.694;2023-05-14T09:15:23;5.00;;;3.38;;
22240;SDS011;11289;52.524;13.694;2023-05-14T09:17:53;6.70;;;3.50;;
22240;SDS011;11289;52.524;13.694;2023-05-14T09:20:19;3.17;;;2.67;;
22240;SDS011;11289;52.524;13.694;2023-05-14T09:22:45;6.90;;;3.35;;
22240;SDS011;11289;52.524;13.694;2023-05-14T09:25:14;4.03;;;2.90;;
22240;SDS011;11289;52.524;13.694;2023-05-14T09:27:40;3.85;;;3.08;;
22240;SDS011;11289;52.524;13.694;2023-05-14T09:30:10;6.43;;;3.53;;
22240;SDS011;11289;52.524;13.694;2023-05-14T09:32:38;4.82;;;3.03;;
22240;SDS011;11289;52.524;13.694;2023-05-14T09:35:09;7.68;;;3.35;;
22240;SDS011;11289;52.524;13.694;2023-05-14T09:37:36;6.65;;;3.13;;
22240;SDS011;11289;52.524;13.694;2023-05-14T09:40:05;5.07;;;3.00;;
22240;SDS011;11289;52.524;13.694;2023-05-14T09:42:33;4.47;;;2.83;;
22240;SDS011;11289;52.524;13.694;2023-05-14T09:44:59;4.40;;;3.22;;
22240;SDS011;11289;52.524;13.694;2023-05-14T09:47:26;4.95;;;3.22;;
22240;SDS011;11289;52.524;13.694;2023-05-14T09:49:52;4.30;;;3.25;;
22240;SDS011;11289;52.524;13.694;2023-05-14T09:52:18;9.85;;;8.77;;
22240;SDS011;11289;52.524;13.694;2023-05-14T09:54:45;7.05;;;3.92;;
22240;SDS011;11289;52.524;13.694;2023-05-14T09:57:11;4.97;;;3.17;;
22240;SDS011;11289;52.524;13.694;2023-05-14T09:59:37;6.53;;;4.07;;
22240;SDS011;11289;52.524;13.694;2023-05-14T10:02:03;5.20;;;2.90;;
22240;SDS011;11289;52.524;13.694;2023-05-14T10:04:31;4.22;;;2.72;;
22240;SDS011;11289;52.524;13.694;2023-05-14T10:06:58;4.28;;;2.78;;
22240;SDS011;11289;52.524;13.694;2023-05-14T10:09:25;6.65;;;4.07;;
22240;SDS011;11289;52.524;13.694;2023-05-14T10:11:55;5.10;;;3.15;;
22240;SDS011;11289;52.524;13.694;2023-05-14T10:14:26;4.60;;;2.85;;
22240;SDS011;11289;52.524;13.694;2023-05-14T10:16:57;4.93;;;3.25;;
22240;SDS011;11289;52.524;13.694;2023-05-14T10:19:25;8.85;;;3.10;;
22240;SDS011;11289;52.524;13.694;2023-05-14T10:21:54;6.05;;;3.20;;
22240;SDS011;11289;52.524;13.694;2023-05-14T10:24:21;8.45;;;3.45;;
22240;SDS011;11289;52.524;13.694;2023-05-14T10:26:49;7.60;;;3.17;;
22240;SDS011;11289;52.524;13.694;2023-05-14T10:29:15;4.43;;;2.83;;
22240;SDS011;11289;52.524;13.694;2023-05-14T10:31:49;4.28;;;3.35;;
22240;SDS011;11289;52.524;13.694;2023-05-14T10:37:27;6.15;;;3.00;;
22240;SDS011;11289;52.524;13.694;2023-05-14T10:39:58;6.82;;;3.20;;
22240;SDS011;11289;52.524;13.694;2023-05-14T10:42:36;4.72;;;3.45;;
22240;SDS011;11289;52.524;13.694;2023-05-14T10:45:08;5.75;;;2.95;;
22240;SDS011;11289;52.524;13.694;2023-05-14T10:47:37;5.93;;;3.53;;
22240;SDS011;11289;52.524;13.694;2023-05-14T10:50:04;5.10;;;3.17;;
22240;SDS011;11289;52.524;13.694;2023-05-14T10:52:32;4.90;;;3.17;;
22240;SDS011;11289;52.524;13.694;2023-05-14T10:55:00;6.70;;;3.10;;
22240;SDS011;11289;52.524;13.694;2023-05-14T10:57:28;4.55;;;2.60;;
22240;SDS011;11289;52.524;13.694;2023-05-14T10:59:57;4.10;;;3.03;;
22240;SDS011;11289;52.524;13.694;2023-05-14T11:02:25;4.15;;;2.85;;
22240;SDS011;11289;52.524;13.694;2023-05-14T11:04:58;4.75;;;2.97;;
22240;SDS011;11289;52.524;13.694;2023-05-14T11:07:32;6.50;;;3.70;;
22240;SDS011;11289;52.524;13.694;2023-05-14T11:10:02;5.25;;;3.28;;
22240;SDS011;11289;52.524;13.694;2023-05-14T11:12:33;5.72;;;4.28;;
22240;SDS011;11289;52.524;13.694;2023-05-14T11:15:02;4.57;;;3.92;;
22240;SDS011;11289;52.524;13.694;2023-05-14T11:17:31;6.13;;;3.90;;
22240;SDS011;11289;52.524;13.694;2023-05-14T11:19:57;5.00;;;3.70;;
22240;SDS011;11289;52.524;13.694;2023-05-14T11:22:24;5.63;;;3.90;;
22240;SDS011;11289;52.524;13.694;2023-05-14T11:24:50;7.35;;;4.53;;
22240;SDS011;11289;52.524;13.694;2023-05-14T11:27:17;10.45;;;3.83;;
22240;SDS011;11289;52.524;13.694;2023-05-14T11:29:46;6.50;;;3.60;;
22240;SDS011;11289;52.524;13.694;2023-05-14T11:32:13;7.80;;;3.33;;
22240;SDS011;11289;52.524;13.694;2023-05-14T11:34:41;4.72;;;3.28;;
22240;SDS011;11289;52.524;13.694;2023-05-14T11:37:12;4.70;;;3.08;;
22240;SDS011;11289;52.524;13.694;2023-05-14T11:39:50;4.20;;;3.55;;
22240;SDS011;11289;52.524;13.694;2023-05-14T11:42:18;4.80;;;3.30;;
22240;SDS011;11289;52.524;13.694;2023-05-14T11:44:45;6.57;;;4.00;;
22240;SDS011;11289;52.524;13.694;2023-05-14T11:47:13;5.78;;;3.80;;
22240;SDS011;11289;52.524;13.694;2023-05-14T11:49:40;5.45;;;4.22;;
22240;SDS011;11289;52.524;13.694;2023-05-14T11:52:09;7.15;;;3.13;;
22240;SDS011;11289;52.524;13.694;2023-05-14T11:54:38;4.18;;;3.33;;
22240;SDS011;11289;52.524;13.694;2023-05-14T11:57:09;4.95;;;4.00;;
22240;SDS011;11289;52.524;13.694;2023-05-14T11:59:37;7.80;;;3.72;;
22240;SDS011;11289;52.524;13.694;2023-05-14T12:02:03;5.95;;;3.47;;
22240;SDS011;11289;52.524;13.694;2023-05-14T12:04:30;6.55;;;3.47;;
22240;SDS011;11289;52.524;13.694;2023-05-14T12:06:57;6.03;;;3.42;;
22240;SDS011;11289;52.524;13.694;2023-05-14T12:09:25;7.72;;;3.85;;
22240;SDS011;11289;52.524;13.694;2023-05-14T12:11:51;6.53;;;3.30;;
22240;SDS011;11289;52.524;13.694;2023-05-14T12:14:18;6.13;;;3.42;;
22240;SDS011;11289;52.524;13.694;2023-05-14T12:16:48;3.65;;;2.47;;
22240;SDS011;11289;52.524;13.694;2023-05-14T12:19:17;7.20;;;3.75;;
22240;SDS011;11289;52.524;13.694;2023-05-14T12:21:44;5.30;;;3.30;;
22240;SDS011;11289;52.524;13.694;2023-05-14T12:24:13;3.55;;;2.55;;
22240;SDS011;11289;52.524;13.694;2023-05-14T12:26:44;6.85;;;3.10;;
22240;SDS011;11289;52.524;13.694;2023-05-14T12:29:14;5.18;;;3.00;;
22240;SDS011;11289;52.524;13.694;2023-05-14T12:31:45;4.10;;;2.80;;
22240;SDS011;11289;52.524;13.694;2023-05-14T12:34:12;5.70;;;2.90;;
22240;SDS011;11289;52.524;13.694;2023-05-14T12:36:38;4.88;;;3.28;;
22240;SDS011;11289;52.524;13.694;2023-05-14T12:39:04;6.45;;;3.15;;
22240;SDS011;11289;52.524;13.694;2023-05-14T12:41:30;5.22;;;2.75;;
22240;SDS011;11289;52.524;13.694;2023-05-14T12:43:58;6.03;;;3.53;;
22240;SDS011;11289;52.524;13.694;2023-05-14T12:46:25;5.88;;;2.90;;
22240;SDS011;11289;52.524;13.694;2023-05-14T12:48:52;5.97;;;3.33;;
22240;SDS011;11289;52.524;13.694;2023-05-14T12:51:19;5.88;;;3.20;;
22240;SDS011;11289;52.524;13.694;2023-05-14T12:53:45;4.50;;;3.50;;
22240;SDS011;11289;52.524;13.694;2023-05-14T12:56:11;3.65;;;2.53;;
22240;SDS011;11289;52.524;13.694;2023-05-14T12:58:37;5.40;;;3.40;;
22240;SDS011;11289;52.524;13.694;2023-05-14T13:01:04;5.45;;;3.03;;
22240;SDS011;11289;52.524;13.694;2023-05-14T13:03:30;6.80;;;3.60;;
22240;SDS011;11289;52.524;13.694;2023-05-14T13:05:56;5.03;;;3.05;;
22240;SDS011;11289;52.524;13.694;2023-05-14T13:08:22;5.55;;;3.53;;
22240;SDS011;11289;52.524;13.694;2023-05-14T13:10:51;6.75;;;2.80;;
22240;SDS011;11289;52.524;13.694;2023-05-14T13:13:18;5.68;;;3.75;;
22240;SDS011;11289;52.524;13.694;2023-05-14T13:15:45;6.60;;;3.10;;
22240;SDS011;11289;52.524;13.694;2023-05-14T13:18:11;5.28;;;3.22;;
22240;SDS011;11289;52.524;13.694;2023-05-14T13:20:38;6.10;;;2.75;;
22240;SDS011;11289;52.524;13.694;2023-05-14T13:23:04;10.98;;;4.15;;
22240;SDS011;11289;52.524;13.694;2023-05-14T13:25:30;4.00;;;3.03;;
22240;SDS011;11289;52.524;13.694;2023-05-14T13:27:56;6.13;;;2.90;;
22240;SDS011;11289;52.524;13.694;2023-05-14T13:30:22;4.55;;;2.70;;
22240;SDS011;11289;52.524;13.694;2023-05-14T13:32:48;4.53;;;2.75;;
22240;SDS011;11289;52.524;13.694;2023-05-14T13:35:14;6.50;;;2.42;;
22240;SDS011;11289;52.524;13.694;2023-05-14T13:37:41;4.15;;;2.50;;
22240;SDS011;11289;52.524;13.694;2023-05-14T13:40:08;4.65;;;2.53;;
22240;SDS011;11289;52.524;13.694;2023-05-14T13:42:34;3.70;;;2.85;;
22240;SDS011;11289;52.524;13.694;2023-05-14T13:45:01;3.60;;;2.65;;
22240;SDS011;11289;52.524;13.694;2023-05-14T13:47:28;5.70;;;2.50;;
22240;SDS011;11289;52.524;13.694;2023-05-14T13:49:54;3.88;;;2.50;;
22240;SDS011;11289;52.524;13.694;2023-05-14T13:52:21;4.20;;;2.67;;
22240;SDS011;11289;52.524;13.694;2023-05-14T13:54:47;4.68;;;2.72;;
22240;SDS011;11289;52.524;13.694;2023-05-14T13:57:13;3.58;;;2.30;;
22240;SDS011;11289;52.524;13.694;2023-05-14T13:59:39;5.28;;;2.45;;
22240;SDS011;11289;52.524;13.694;2023-05-14T14:02:06;5.93;;;3.28;;
22240;SDS011;11289;52.524;13.694;2023-05-14T14:04:33;5.47;;;2.75;;
22240;SDS011;11289;52.524;13.694;2023-05-14T14:06:59;3.58;;;2.83;;
22240;SDS011;11289;52.524;13.694;2023-05-14T14:09:25;5.03;;;2.75;;
22240;SDS011;11289;52.524;13.694;2023-05-14T14:11:51;4.35;;;3.22;;
22240;SDS011;11289;52.524;13.694;2023-05-14T14:14:17;3.58;;;2.20;;
22240;SDS011;11289;52.524;13.694;2023-05-14T14:16:43;4.32;;;2.90;;
22240;SDS011;11289;52.524;13.694;2023-05-14T14:19:09;2.97;;;2.13;;
22240;SDS011;11289;52.524;13.694;2023-05-14T14:21:35;4.35;;;2.33;;
22240;SDS011;11289;52.524;13.694;2023-05-14T14:24:04;7.13;;;3.15;;
22240;SDS011;11289;52.524;13.694;2023-05-14T14:26:30;4.70;;;2.95;;
22240;SDS011;11289;52.524;13.694;2023-05-14T14:28:56;4.72;;;3.03;;
22240;SDS011;11289;52.524;13.694;2023-05-14T14:31:23;4.50;;;2.95;;
22240;SDS011;11289;52.524;13.694;2023-05-14T14:33:49;5.85;;;3.20;;
22240;SDS011;11289;52.524;13.694;2023-05-14T14:36:15;4.20;;;2.75;;
22240;SDS011;11289;52.524;13.694;2023-05-14T14:38:41;6.30;;;2.83;;
22240;SDS011;11289;52.524;13.694;2023-05-14T14:41:07;8.98;;;3.15;;
22240;SDS011;11289;52.524;13.694;2023-05-14T14:43:35;4.68;;;3.20;;
22240;SDS011;11289;52.524;13.694;2023-05-14T14:46:02;8.05;;;3.38;;
22240;SDS011;11289;52.524;13.694;2023-05-14T14:48:29;5.30;;;3.20;;
22240;SDS011;11289;52.524;13.694;2023-05-14T14:51:02;3.83;;;3.42;;
22240;SDS011;11289;52.524;13.694;2023-05-14T14:53:29;7.85;;;3.40;;
22240;SDS011;11289;52.524;13.694;2023-05-14T14:55:55;5.03;;;3.60;;
22240;SDS011;11289;52.524;13.694;2023-05-14T14:58:22;3.45;;;3.10;;
22240;SDS011;11289;52.524;13.694;2023-05-14T15:00:51;4.22;;;2.72;;